Robert Franco — WDG7687 — position and weather

sailwx.info

Track history (hours):
 
Tides and Currents Weather Stations Pressure Air Temp Water Temp Dewpoint Dewpoint Depression Visibility Wind Speed Wind Dir Waves Ship Positions

Robert Franco

Owner: Harley Marine Services, Inc, Seattle, WA. More information available from US FCC via Universal Licensing System and Coast Guard Vessel Documentation Center.

Last reported at 2018-Feb-19 18:00 UTC. Time now 2018-Feb-19 18:06 UTC.
Position N 37°48' W 122°20'.

Length 30 m; draft 5.7 m.

Type: Towing. MMSI: 367569830.

Date/timePositionNaut miles runAvg speedWind from/ knotsBaromVisibWave heightAir tempDewpointWater temp
2018-Feb-19 18:00N 37°48' W 122°20'611.6
2018-Feb-19 17:29N 37°49' W 122°28'3 5.6
2018-Feb-19 17:01N 37°49' W 122°31'3 6.3
2018-Feb-19 16:30N 37°50' W 122°27'4 7.5
2018-Feb-19 16:00N 37°53' W 122°25'2 3.9
2018-Feb-19 15:30N 37°55' W 122°25'0 0.1
2018-Feb-19 15:00N 37°55' W 122°25'0 0.1
2018-Feb-19 14:31N 37°55' W 122°25'2 3.8
2018-Feb-19 14:01N 37°54' W 122°25'4 8.7
2018-Feb-19 13:30N 37°49' W 122°23'5 9.5
2018-Feb-19 13:00N 37°47' W 122°18'1 1.0
2018-Feb-19 12:30N 37°48' W 122°17'0 0.0
2018-Feb-19 12:00N 37°48' W 122°17'0 0.0
2018-Feb-19 11:30N 37°48' W 122°17'0 0.0
2018-Feb-19 11:00N 37°48' W 122°17'0 0.0
2018-Feb-19 10:30N 37°48' W 122°17'0 0.0
2018-Feb-19 10:00N 37°48' W 122°17'0 0.0
2018-Feb-19 09:30N 37°48' W 122°17'0 0.9
2018-Feb-19 09:01N 37°48' W 122°18'3 6.6
2018-Feb-19 08:30N 37°48' W 122°22'3 5.0
2018-Feb-19 08:00N 37°46' W 122°20'0 0.5
2018-Feb-19 07:31N 37°45' W 122°20'0 0.0
2018-Feb-19 07:01N 37°45' W 122°20'0 0.1
2018-Feb-19 06:30N 37°45' W 122°20'0 0.1
2018-Feb-19 06:00N 37°45' W 122°20'0 0.1
2018-Feb-19 05:30N 37°45' W 122°20'0 0.1
2018-Feb-19 05:01N 37°45' W 122°20'0 0.0
2018-Feb-19 04:30N 37°46' W 122°20'1 1.7
2018-Feb-19 04:00N 37°45' W 122°21'0 0.1
2018-Feb-19 03:30N 37°45' W 122°21'0 0.1
2018-Feb-19 03:00N 37°45' W 122°21'0 0.0
2018-Feb-19 02:30N 37°45' W 122°21'0 0.1
2018-Feb-19 02:00N 37°45' W 122°21'0 0.0
2018-Feb-19 01:30N 37°45' W 122°21'0 0.0
2018-Feb-19 01:00N 37°45' W 122°21'0 0.1
2018-Feb-19 00:30N 37°45' W 122°21'1 2.6
2018-Feb-19 00:00N 37°46' W 122°22'4 7.1
2018-Feb-18 23:31N 37°48' W 122°18'0 0.7
2018-Feb-18 23:00N 37°48' W 122°17'0 0.0
2018-Feb-18 22:29N 37°48' W 122°17'0 0.0
2018-Feb-18 22:00N 37°48' W 122°17'0 0.0
2018-Feb-18 21:30N 37°48' W 122°17'0 0.0
2018-Feb-18 21:00N 37°48' W 122°17'0 0.0
2018-Feb-18 20:30N 37°48' W 122°17'0 0.0
2018-Feb-18 20:00N 37°48' W 122°17'0 0.0
2018-Feb-18 19:30N 37°48' W 122°17'0 0.0
2018-Feb-18 19:00N 37°48' W 122°17'0 0.0
2018-Feb-18 18:30N 37°48' W 122°17'0 0.0
2018-Feb-18 18:00N 37°48' W 122°17'0 0.0
2018-Feb-18 17:30N 37°48' W 122°17'0 0.0
2018-Feb-18 17:00N 37°48' W 122°17'0 0.0
2018-Feb-18 16:30N 37°48' W 122°17'0 0.0
2018-Feb-18 15:59N 37°48' W 122°17'0 0.0
2018-Feb-18 15:31N 37°48' W 122°17'0 0.8
2018-Feb-18 15:01N 37°48' W 122°18'2 3.2
2018-Feb-18 14:30N 37°48' W 122°20'2 3.7
2018-Feb-18 14:01N 37°48' W 122°17'1 1.9
2018-Feb-18 13:30N 37°48' W 122°18'1 1.1
2018-Feb-18 13:01N 37°48' W 122°19'0 0.6
2018-Feb-18 12:30N 37°48' W 122°19'0 0.0
2018-Feb-18 12:00N 37°48' W 122°19'0 0.0
2018-Feb-18 11:31N 37°48' W 122°19'0 0.1
2018-Feb-18 11:00N 37°48' W 122°19'4 8.4
2018-Feb-18 10:30N 37°50' W 122°23'510.1
2018-Feb-18 10:00N 37°55' W 122°25'5 9.5
2018-Feb-18 09:30N 37°59' W 122°25'5 9.0
2018-Feb-18 09:00N 38°02' W 122°21'5 9.2
2018-Feb-18 08:29N 38°04' W 122°15'5 9.2
2018-Feb-18 07:55N 38°02' W 122°09'1 0.9
2018-Feb-18 07:16N 38°02' W 122°08'1 4.3
2018-Feb-18 07:00N 38°02' W 122°09'1 0.1
2018-Feb-17 19:49N 38°03' W 122°10'310.2
2018-Feb-17 19:30N 38°04' W 122°14'1 2.9
2018-Feb-17 19:00N 38°03' W 122°16'0 0.0
2018-Feb-17 18:30N 38°03' W 122°16'0 0.8
2018-Feb-17 18:00N 38°03' W 122°16'3 6.1
2018-Feb-17 17:30N 38°03' W 122°12'4 4.4
2018-Feb-17 16:38N 38°02' W 122°08'0 0.0
2018-Feb-17 16:30N 38°02' W 122°08'0 0.0
2018-Feb-17 15:51N 38°02' W 122°08'0 0.7
2018-Feb-17 15:30N 38°02' W 122°08'2 3.2
2018-Feb-17 14:59N 38°02' W 122°10'3 6.0
2018-Feb-17 14:30N 38°04' W 122°13'4 8.4
2018-Feb-17 14:00N 38°03' W 122°19'4 8.4
2018-Feb-17 13:30N 38°01' W 122°23'4 9.0
2018-Feb-17 13:01N 37°58' W 122°27'4 8.1
2018-Feb-17 12:30N 37°54' W 122°26'4 9.0
2018-Feb-17 12:00N 37°49' W 122°25'4 7.5
2018-Feb-17 11:30N 37°49' W 122°30'1 2.1
2018-Feb-17 11:00N 37°48' W 122°31'1 1.1
2018-Feb-17 10:30N 37°48' W 122°30'1 2.2
2018-Feb-17 10:00N 37°49' W 122°29'4 7.8
2018-Feb-17 09:30N 37°49' W 122°24'4 8.1
2018-Feb-17 09:01N 37°45' W 122°23'0 0.1
2018-Feb-17 08:30N 37°45' W 122°23'0 0.0
2018-Feb-17 08:00N 37°45' W 122°23'1 1.3
2018-Feb-17 07:31N 37°45' W 122°22'0 0.9
2018-Feb-17 07:01N 37°45' W 122°22'1 1.8
2018-Feb-17 06:31N 37°45' W 122°22'2 4.9
2018-Feb-17 06:00N 37°48' W 122°22'4 7.3
2018-Feb-17 05:30N 37°48' W 122°17'0 0.0
2018-Feb-17 05:00N 37°48' W 122°17'0 0.0
2018-Feb-17 04:30N 37°48' W 122°17'0 0.0
2018-Feb-17 04:00N 37°48' W 122°17'0 0.0
2018-Feb-17 03:30N 37°48' W 122°17'0 0.0
2018-Feb-17 03:00N 37°48' W 122°17'0 0.0
2018-Feb-17 02:30N 37°48' W 122°17'0 0.0
2018-Feb-17 02:00N 37°48' W 122°17'0 0.0
2018-Feb-17 01:30N 37°48' W 122°17'0 0.0
2018-Feb-17 01:00N 37°48' W 122°17'0 0.0
2018-Feb-17 00:30N 37°48' W 122°17'0 0.0
2018-Feb-17 00:00N 37°48' W 122°17'0 0.0
2018-Feb-16 23:30N 37°48' W 122°17'0 0.0
2018-Feb-16 23:00N 37°48' W 122°17'0 0.0
2018-Feb-16 22:30N 37°48' W 122°17'0 0.0
2018-Feb-16 22:00N 37°48' W 122°17'0 0.0
2018-Feb-16 21:30N 37°48' W 122°17'0 0.0
2018-Feb-16 21:00N 37°48' W 122°17'0 0.0
2018-Feb-16 20:30N 37°48' W 122°17'0 0.0
2018-Feb-16 20:00N 37°48' W 122°17'0 0.0
2018-Feb-16 19:30N 37°48' W 122°17'0 0.0
2018-Feb-16 19:00N 37°48' W 122°17'0 0.0
2018-Feb-16 18:31N 37°48' W 122°17'0 0.0
2018-Feb-16 18:00N 37°48' W 122°17'0 0.0
2018-Feb-16 17:30N 37°48' W 122°17'0 0.0
2018-Feb-16 17:01N 37°48' W 122°17'0 0.0
2018-Feb-16 16:30N 37°48' W 122°17'0 0.0
2018-Feb-16 15:59N 37°48' W 122°17'0 0.0
2018-Feb-16 15:30N 37°48' W 122°17'0 0.0
2018-Feb-16 15:00N 37°48' W 122°17'1 1.1
2018-Feb-16 14:31N 37°48' W 122°18'1 2.0
2018-Feb-16 14:01N 37°48' W 122°19'2 4.4
2018-Feb-16 13:30N 37°48' W 122°22'0 0.9
2018-Feb-16 13:00N 37°48' W 122°22'3 5.4
2018-Feb-16 12:31N 37°48' W 122°19'1 2.8
2018-Feb-16 12:00N 37°48' W 122°17'0 0.0
2018-Feb-16 11:30N 37°48' W 122°17'0 0.0
2018-Feb-16 11:00N 37°48' W 122°17'0 0.0
2018-Feb-16 10:30N 37°48' W 122°17'0 0.0
2018-Feb-16 10:00N 37°48' W 122°17'0 0.0
2018-Feb-16 09:30N 37°48' W 122°17'0 0.0
2018-Feb-16 09:00N 37°48' W 122°17'0 0.0
2018-Feb-16 08:30N 37°48' W 122°17'0 0.0
2018-Feb-16 08:00N 37°48' W 122°17'0 0.0
2018-Feb-16 07:30N 37°48' W 122°17'0 0.0
2018-Feb-16 07:00N 37°48' W 122°17'0 0.0
2018-Feb-16 06:30N 37°48' W 122°17'0 0.0
2018-Feb-16 06:00N 37°48' W 122°17'0 0.0
2018-Feb-16 05:30N 37°48' W 122°17'0 0.0
2018-Feb-16 05:00N 37°48' W 122°17'0 0.0
2018-Feb-16 04:30N 37°48' W 122°17'0 0.0
2018-Feb-16 04:00N 37°48' W 122°17'0 0.0
2018-Feb-16 03:30N 37°48' W 122°17'0 0.0
2018-Feb-16 03:01N 37°48' W 122°17'0 0.0
2018-Feb-16 02:30N 37°48' W 122°17'0 0.0
2018-Feb-16 02:01N 37°48' W 122°17'0 0.0
2018-Feb-16 01:30N 37°48' W 122°17'0 0.0
2018-Feb-16 01:00N 37°48' W 122°17'0 0.0
2018-Feb-16 00:30N 37°48' W 122°17'2 4.4
2018-Feb-16 00:00N 37°48' W 122°20'3 6.8
2018-Feb-15 23:31N 37°45' W 122°20'2 4.4
2018-Feb-15 23:00N 37°46' W 122°22'4 7.1
2018-Feb-15 22:30N 37°49' W 122°25'4 7.8
2018-Feb-15 22:00N 37°49' W 122°30'1 1.6
2018-Feb-15 21:30N 37°48' W 122°30'0 0.5
2018-Feb-15 21:00N 37°48' W 122°30'3 5.3
2018-Feb-15 20:30N 37°49' W 122°27'4 7.7
2018-Feb-15 20:00N 37°48' W 122°22'4 7.6
2018-Feb-15 19:30N 37°48' W 122°17'0 0.0
2018-Feb-15 19:00N 37°48' W 122°17'0 0.0
2018-Feb-15 18:30N 37°48' W 122°17'0 0.0
2018-Feb-15 18:00N 37°48' W 122°17'0 0.0
2018-Feb-15 17:30N 37°48' W 122°17'0 0.0
2018-Feb-15 17:00N 37°48' W 122°17'0 0.0
2018-Feb-15 16:30N 37°48' W 122°17'0 0.0
2018-Feb-15 16:00N 37°48' W 122°17'0 0.0
2018-Feb-15 15:29N 37°48' W 122°17'2 4.3
2018-Feb-15 15:00N 37°48' W 122°20'1 1.6
2018-Feb-15 14:30N 37°49' W 122°20'0 0.3
2018-Feb-15 14:00N 37°49' W 122°20'0 0.1
2018-Feb-15 13:31N 37°49' W 122°20'2 3.8
2018-Feb-15 13:00N 37°48' W 122°22'2 4.5
2018-Feb-15 12:30N 37°48' W 122°19'2 3.7
2018-Feb-15 12:00N 37°48' W 122°17'0 0.0
2018-Feb-15 11:30N 37°48' W 122°17'0 0.0
2018-Feb-15 11:00N 37°48' W 122°17'0 0.0
2018-Feb-15 10:30N 37°48' W 122°17'0 0.0
2018-Feb-15 10:00N 37°48' W 122°17'0 0.0
2018-Feb-15 09:30N 37°48' W 122°17'0 0.0
2018-Feb-15 09:00N 37°48' W 122°17'0 0.0
2018-Feb-15 08:30N 37°48' W 122°17'0 0.0
2018-Feb-15 08:00N 37°48' W 122°17'0 0.0
2018-Feb-15 07:30N 37°48' W 122°17'0 0.0
2018-Feb-15 07:00N 37°48' W 122°17'0 0.0
2018-Feb-15 06:30N 37°48' W 122°17'0 0.0
2018-Feb-15 06:00N 37°48' W 122°17'0 0.0
2018-Feb-15 05:30N 37°48' W 122°17'0 0.0
2018-Feb-15 05:00N 37°48' W 122°17'0 0.0
2018-Feb-15 04:30N 37°48' W 122°17'0 0.0
2018-Feb-15 04:00N 37°48' W 122°17'0 0.0
2018-Feb-15 03:30N 37°48' W 122°17'0 0.0
2018-Feb-15 03:00N 37°48' W 122°17'0 0.0
2018-Feb-15 02:29N 37°48' W 122°17'0 0.0
2018-Feb-15 02:00N 37°48' W 122°17'0 0.0
2018-Feb-15 01:30N 37°48' W 122°17'0 0.0
2018-Feb-15 01:00N 37°48' W 122°17'0 0.0
2018-Feb-15 00:30N 37°48' W 122°17'0 0.0
2018-Feb-15 00:00N 37°48' W 122°17'0 0.0
2018-Feb-14 23:30N 37°48' W 122°17'0 0.0
2018-Feb-14 23:00N 37°48' W 122°17'0 0.0
2018-Feb-14 22:31N 37°48' W 122°17'0 0.0
2018-Feb-14 22:00N 37°48' W 122°17'0 0.0
2018-Feb-14 21:29N 37°48' W 122°17'0 0.0
2018-Feb-14 21:00N 37°48' W 122°17'0 0.0
2018-Feb-14 20:31N 37°48' W 122°17'0 0.0
2018-Feb-14 20:01N 37°48' W 122°17'0 0.0
2018-Feb-14 19:30N 37°48' W 122°17'0 0.0
2018-Feb-14 19:00N 37°48' W 122°17'0 0.0
2018-Feb-14 18:30N 37°48' W 122°17'0 0.0
2018-Feb-14 18:00N 37°48' W 122°17'0 0.0
2018-Feb-14 17:30N 37°48' W 122°17'2 3.5
2018-Feb-14 17:00N 37°48' W 122°19'2 3.4
2018-Feb-14 16:31N 37°48' W 122°17'1 1.9
2018-Feb-14 16:01N 37°48' W 122°18'1 1.4
2018-Feb-14 15:30N 37°48' W 122°19'0 0.1
2018-Feb-14 15:00N 37°48' W 122°19'2 3.3
2018-Feb-14 14:30N 37°48' W 122°17'0 0.0
2018-Feb-14 14:00N 37°48' W 122°17'0 0.0
2018-Feb-14 13:30N 37°48' W 122°17'0 0.0
2018-Feb-14 13:00N 37°48' W 122°17'0 0.0
2018-Feb-14 12:30N 37°48' W 122°17'0 0.0
2018-Feb-14 12:00N 37°48' W 122°17'0 0.0
2018-Feb-14 11:30N 37°48' W 122°17'0 0.0
2018-Feb-14 11:00N 37°48' W 122°17'0 0.0
2018-Feb-14 10:30N 37°48' W 122°17'0 0.0
2018-Feb-14 10:00N 37°48' W 122°17'0 0.0
2018-Feb-14 09:30N 37°48' W 122°17'0 0.0
2018-Feb-14 09:00N 37°48' W 122°17'0 0.0
2018-Feb-14 08:30N 37°48' W 122°17'0 0.0
2018-Feb-14 08:00N 37°48' W 122°17'0 0.0
2018-Feb-14 07:30N 37°48' W 122°17'0 0.0
2018-Feb-14 07:00N 37°48' W 122°17'0 0.0
2018-Feb-14 06:30N 37°48' W 122°17'0 0.0
2018-Feb-14 06:00N 37°48' W 122°17'0 0.0
2018-Feb-14 05:30N 37°48' W 122°17'0 0.0
2018-Feb-14 05:00N 37°48' W 122°17'0 0.0
2018-Feb-14 04:30N 37°48' W 122°17'0 0.0
2018-Feb-14 04:00N 37°48' W 122°17'0 0.0
2018-Feb-14 03:30N 37°48' W 122°17'0 0.0
2018-Feb-14 03:00N 37°48' W 122°17'0 0.0
2018-Feb-14 02:30N 37°48' W 122°17'0 0.0
2018-Feb-14 02:00N 37°48' W 122°17'0 0.0
2018-Feb-14 01:30N 37°48' W 122°17'0 0.0
2018-Feb-14 01:00N 37°48' W 122°17'0 0.0
2018-Feb-14 00:30N 37°48' W 122°17'0 0.0
2018-Feb-14 00:00N 37°48' W 122°17'0 0.0
2018-Feb-13 23:30N 37°48' W 122°17'0 0.0
2018-Feb-13 23:00N 37°48' W 122°17'0 0.0
2018-Feb-13 22:30N 37°48' W 122°17'0 0.0
2018-Feb-13 22:00N 37°48' W 122°17'0 0.0
2018-Feb-13 21:30N 37°48' W 122°17'0 0.0
2018-Feb-13 21:00N 37°48' W 122°17'0 0.0
2018-Feb-13 20:30N 37°48' W 122°17'0 0.0
2018-Feb-13 20:00N 37°48' W 122°17'0 0.0
2018-Feb-13 19:30N 37°48' W 122°17'0 0.0
2018-Feb-13 19:00N 37°48' W 122°17'0 0.0
2018-Feb-13 18:30N 37°48' W 122°17'0 0.0
2018-Feb-13 18:00N 37°48' W 122°17'0 0.0
2018-Feb-13 17:30N 37°48' W 122°17'0 0.0
2018-Feb-13 17:00N 37°48' W 122°17'0 0.0
2018-Feb-13 16:30N 37°48' W 122°17'0 0.0
2018-Feb-13 16:00N 37°48' W 122°17'0 0.0
2018-Feb-13 15:30N 37°48' W 122°17'0 0.0
2018-Feb-13 15:00N 37°48' W 122°17'0 0.0
2018-Feb-13 14:30N 37°48' W 122°17'0 0.0
2018-Feb-13 14:00N 37°48' W 122°17'0 0.0
2018-Feb-13 13:30N 37°48' W 122°17'0 0.0
2018-Feb-13 13:00N 37°48' W 122°17'0 0.0
2018-Feb-13 12:30N 37°48' W 122°17'0 0.0
2018-Feb-13 12:00N 37°48' W 122°17'0 0.0
2018-Feb-13 11:30N 37°48' W 122°17'0 0.0
2018-Feb-13 11:00N 37°48' W 122°17'0 0.0
2018-Feb-13 10:30N 37°48' W 122°17'2 3.3
2018-Feb-13 10:01N 37°48' W 122°19'5 9.3
2018-Feb-13 09:30N 37°49' W 122°25'4 8.5
2018-Feb-13 09:00N 37°49' W 122°30'1 1.5
2018-Feb-13 08:30N 37°49' W 122°31'2 3.7
2018-Feb-13 08:00N 37°49' W 122°29'4 7.8
2018-Feb-13 07:31N 37°51' W 122°25'4 7.7
2018-Feb-13 07:00N 37°55' W 122°27'4 7.4
2018-Feb-13 06:30N 37°58' W 122°26'3 6.6
2018-Feb-13 06:00N 38°01' W 122°24'4 7.2
2018-Feb-13 05:28N 38°03' W 122°20'3 6.4
2018-Feb-13 05:00N 38°04' W 122°16'0 0.4
2018-Feb-13 04:28N 38°03' W 122°16'0 0.0
2018-Feb-13 04:00N 38°03' W 122°16'4 7.5
2018-Feb-13 03:27N 38°02' W 122°21'4 9.0
2018-Feb-13 03:00N 37°60' W 122°25'4 8.9
2018-Feb-13 02:30N 37°55' W 122°25'5 9.1
2018-Feb-13 02:00N 37°51' W 122°24'4 8.1
2018-Feb-13 01:30N 37°48' W 122°21'3 5.3
2018-Feb-13 01:01N 37°48' W 122°17'1 3.0
2018-Feb-13 00:30N 37°48' W 122°19'0 0.3
2018-Feb-13 00:01N 37°48' W 122°19'1 2.9
2018-Feb-12 23:30N 37°48' W 122°18'0 0.7
2018-Feb-12 23:00N 37°48' W 122°17'0 0.0
2018-Feb-12 22:30N 37°48' W 122°17'0 0.0
2018-Feb-12 22:00N 37°48' W 122°17'0 0.0
2018-Feb-12 21:30N 37°48' W 122°17'0 0.0
2018-Feb-12 21:00N 37°48' W 122°17'0 0.0
2018-Feb-12 20:30N 37°48' W 122°17'0 0.0
2018-Feb-12 20:00N 37°48' W 122°17'0 0.0
2018-Feb-12 19:30N 37°48' W 122°17'0 0.0
2018-Feb-12 19:00N 37°48' W 122°17'0 0.0
2018-Feb-12 18:30N 37°48' W 122°17'0 0.0
2018-Feb-12 18:00N 37°48' W 122°17'0 0.0
2018-Feb-12 17:30N 37°48' W 122°17'0 0.0
2018-Feb-12 17:00N 37°48' W 122°17'0 0.0
2018-Feb-12 16:31N 37°48' W 122°17'0 0.0
2018-Feb-12 16:00N 37°48' W 122°17'0 0.0
2018-Feb-12 15:30N 37°48' W 122°17'1 2.1
2018-Feb-12 15:00N 37°48' W 122°18'1 1.2
2018-Feb-12 14:30N 37°48' W 122°19'2 3.9
2018-Feb-12 14:00N 37°48' W 122°22'0 0.4
2018-Feb-12 13:30N 37°48' W 122°22'1 2.7
2018-Feb-12 13:00N 37°47' W 122°22'2 4.0
2018-Feb-12 12:30N 37°48' W 122°20'2 4.8
2018-Feb-12 12:00N 37°48' W 122°17'0 0.0
2018-Feb-12 11:30N 37°48' W 122°17'0 0.0
2018-Feb-12 11:00N 37°48' W 122°17'0 0.0
2018-Feb-12 10:30N 37°48' W 122°17'0 0.0
2018-Feb-12 10:00N 37°48' W 122°17'0 0.0
2018-Feb-12 09:30N 37°48' W 122°17'0 0.0
2018-Feb-12 09:00N 37°48' W 122°17'0 0.0
2018-Feb-12 08:30N 37°48' W 122°17'0 0.0
2018-Feb-12 08:01N 37°48' W 122°17'0 0.0
2018-Feb-12 07:30N 37°48' W 122°17'0 0.0
2018-Feb-12 07:00N 37°48' W 122°17'0 0.0
2018-Feb-12 06:30N 37°48' W 122°17'0 0.0
2018-Feb-12 06:00N 37°48' W 122°17'0 0.0
2018-Feb-12 05:30N 37°48' W 122°17'0 0.0
2018-Feb-12 05:00N 37°48' W 122°17'0 0.0
2018-Feb-12 04:30N 37°48' W 122°17'0 0.0
2018-Feb-12 04:00N 37°48' W 122°17'3 5.5
2018-Feb-12 03:30N 37°48' W 122°21'510.1
2018-Feb-12 03:00N 37°52' W 122°24'3 6.3
2018-Feb-12 02:30N 37°55' W 122°25'0 0.0
2018-Feb-12 01:58N 37°55' W 122°25'0 0.0
2018-Feb-12 01:28N 37°55' W 122°25'0 0.0
2018-Feb-12 00:52N 37°55' W 122°25'0 0.0
2018-Feb-12 00:22N 37°55' W 122°25'0 0.0
2018-Feb-11 23:58N 37°55' W 122°25'0 0.0
2018-Feb-11 23:28N 37°55' W 122°25'0 0.0
2018-Feb-11 22:55N 37°55' W 122°25'0 0.0
2018-Feb-11 22:31N 37°55' W 122°25'3 7.0
2018-Feb-11 22:01N 37°59' W 122°26'611.4
2018-Feb-11 21:30N 38°03' W 122°20'511.0
2018-Feb-11 21:01N 38°04' W 122°14'1 0.4
2018-Feb-11 18:18N 38°03' W 122°12'410.2
2018-Feb-11 17:55N 38°03' W 122°17'4 9.6
2018-Feb-11 17:27N 38°02' W 122°23'510.3
2018-Feb-11 17:00N 37°58' W 122°26'5 9.4
2018-Feb-11 16:30N 37°54' W 122°22'1 1.1
2018-Feb-11 15:59N 37°55' W 122°22'0 0.2
2018-Feb-11 15:30N 37°55' W 122°22'0 0.0
2018-Feb-11 15:00N 37°55' W 122°22'0 0.1
2018-Feb-11 14:31N 37°55' W 122°22'0 0.0
2018-Feb-11 14:00N 37°55' W 122°22'0 0.0
2018-Feb-11 13:31N 37°55' W 122°22'2 4.2
2018-Feb-11 13:00N 37°55' W 122°24'3 5.3
2018-Feb-11 12:31N 37°52' W 122°24'4 8.1
2018-Feb-11 12:00N 37°48' W 122°22'2 5.0
2018-Feb-11 11:31N 37°48' W 122°19'0 0.3
2018-Feb-11 11:00N 37°48' W 122°19'0 0.6
2018-Feb-11 10:30N 37°48' W 122°19'1 2.5
2018-Feb-11 10:01N 37°48' W 122°17'0 0.0
2018-Feb-11 09:30N 37°48' W 122°17'0 0.0
2018-Feb-11 09:00N 37°48' W 122°17'0 0.0
2018-Feb-11 08:30N 37°48' W 122°17'0 0.0
2018-Feb-11 08:01N 37°48' W 122°17'0 0.0
2018-Feb-11 07:30N 37°48' W 122°17'0 0.0
2018-Feb-11 07:00N 37°48' W 122°17'0 0.0
2018-Feb-11 06:31N 37°48' W 122°17'0 0.0
2018-Feb-11 06:00N 37°48' W 122°17'0 0.0
2018-Feb-11 05:30N 37°48' W 122°17'0 0.0
2018-Feb-11 05:01N 37°48' W 122°17'0 0.0
2018-Feb-11 04:30N 37°48' W 122°17'0 0.0
2018-Feb-11 04:00N 37°48' W 122°17'0 0.0
2018-Feb-11 03:30N 37°48' W 122°17'0 0.0
2018-Feb-11 03:01N 37°48' W 122°17'2 3.8
2018-Feb-11 02:31N 37°48' W 122°20'1 1.3
2018-Feb-11 02:01N 37°48' W 122°19'0 0.3
2018-Feb-11 01:31N 37°48' W 122°19'2 3.6
2018-Feb-11 01:00N 37°48' W 122°21'1 2.7
2018-Feb-11 00:30N 37°48' W 122°23'4 8.6
2018-Feb-11 00:01N 37°48' W 122°17'0 0.0
2018-Feb-10 23:30N 37°48' W 122°17'0 0.0
2018-Feb-10 23:00N 37°48' W 122°17'0 0.0
2018-Feb-10 22:30N 37°48' W 122°17'0 0.0
2018-Feb-10 22:01N 37°48' W 122°17'0 0.0
2018-Feb-10 21:30N 37°48' W 122°17'0 0.0
2018-Feb-10 21:01N 37°48' W 122°17'0 0.0
2018-Feb-10 20:31N 37°48' W 122°17'0 0.0
2018-Feb-10 20:00N 37°48' W 122°17'0 0.0
2018-Feb-10 19:31N 37°48' W 122°17'0 0.0
2018-Feb-10 19:00N 37°48' W 122°17'0 0.0
2018-Feb-10 18:30N 37°48' W 122°17'0 0.0
2018-Feb-10 18:00N 37°48' W 122°17'0 0.0
2018-Feb-10 17:31N 37°48' W 122°17'0 0.0
2018-Feb-10 17:01N 37°48' W 122°17'0 0.0
2018-Feb-10 16:30N 37°48' W 122°17'0 0.0
2018-Feb-10 16:01N 37°48' W 122°17'0 0.0
2018-Feb-10 15:31N 37°48' W 122°17'0 0.0
2018-Feb-10 15:01N 37°48' W 122°17'1 1.9
2018-Feb-10 14:30N 37°48' W 122°18'0 0.7
2018-Feb-10 14:00N 37°48' W 122°19'1 1.9
2018-Feb-10 13:31N 37°48' W 122°18'1 1.2
2018-Feb-10 13:00N 37°48' W 122°18'3 6.0
2018-Feb-10 12:31N 37°48' W 122°22'2 4.8
2018-Feb-10 12:00N 37°48' W 122°19'1 2.9
2018-Feb-10 11:31N 37°48' W 122°17'1 2.4
2018-Feb-10 11:00N 37°48' W 122°19'0 0.6
2018-Feb-10 10:30N 37°48' W 122°19'1 2.2
2018-Feb-10 10:00N 37°48' W 122°17'0 0.0
2018-Feb-10 09:31N 37°48' W 122°17'0 0.0
2018-Feb-10 09:01N 37°48' W 122°17'0 0.0
2018-Feb-10 08:31N 37°48' W 122°17'0 0.0
2018-Feb-10 08:00N 37°48' W 122°17'0 0.0
2018-Feb-10 07:31N 37°48' W 122°17'0 0.0
2018-Feb-10 07:01N 37°48' W 122°17'0 0.0
2018-Feb-10 06:31N 37°48' W 122°17'0 0.0
2018-Feb-10 06:00N 37°48' W 122°17'0 0.0
2018-Feb-10 05:30N 37°48' W 122°17'0 0.0
2018-Feb-10 05:00N 37°48' W 122°17'0 0.0
2018-Feb-10 04:31N 37°48' W 122°17'0 0.0
2018-Feb-10 04:01N 37°48' W 122°17'1 3.0
2018-Feb-10 03:31N 37°48' W 122°19'0 0.4
2018-Feb-10 03:00N 37°48' W 122°19'0 0.4
2018-Feb-10 02:31N 37°48' W 122°19'2 3.0
2018-Feb-10 02:00N 37°48' W 122°17'0 0.0
2018-Feb-10 01:30N 37°48' W 122°17'0 0.0
2018-Feb-10 01:01N 37°48' W 122°17'0 0.0
2018-Feb-10 00:31N 37°48' W 122°17'0 0.0
2018-Feb-10 00:00N 37°48' W 122°17'0 0.0
2018-Feb-09 23:30N 37°48' W 122°17'0 0.0
2018-Feb-09 23:00N 37°48' W 122°17'0 0.0
2018-Feb-09 22:46N 37°48' W 122°17'0 0.0
2018-Feb-09 22:30N 37°48' W 122°17'0 0.0
2018-Feb-09 22:00N 37°48' W 122°17'0 0.0
2018-Feb-09 21:31N 37°48' W 122°17'0 0.0
2018-Feb-09 19:00N 37°48' W 122°17'0 0.0
2018-Feb-09 18:01N 37°48' W 122°17'  
Track history (hours):
 
Tides and Currents Weather Stations Pressure Air Temp Water Temp Dewpoint Dewpoint Depression Visibility Wind Speed Wind Dir Waves Ship Positions

Robert Franco

Owner: Harley Marine Services, Inc, Seattle, WA. More information available from US FCC via Universal Licensing System and Coast Guard Vessel Documentation Center.

Last reported at 2018-Feb-19 18:00 UTC. Time now 2018-Feb-19 18:06 UTC.
Position N 37°48' W 122°20'.

Length 30 m; draft 5.7 m.

Type: Towing. MMSI: 367569830.

Date/timePositionNaut miles runAvg speedWind from/ knotsBaromVisibWave heightAir tempDewpointWater temp
2018-Feb-19 18:00N 37°48' W 122°20'611.6
2018-Feb-19 17:29N 37°49' W 122°28'3 5.6
2018-Feb-19 17:01N 37°49' W 122°31'3 6.3
2018-Feb-19 16:30N 37°50' W 122°27'4 7.5
2018-Feb-19 16:00N 37°53' W 122°25'2 3.9
2018-Feb-19 15:30N 37°55' W 122°25'0 0.1
2018-Feb-19 15:00N 37°55' W 122°25'0 0.1
2018-Feb-19 14:31N 37°55' W 122°25'2 3.8
2018-Feb-19 14:01N 37°54' W 122°25'4 8.7
2018-Feb-19 13:30N 37°49' W 122°23'5 9.5
2018-Feb-19 13:00N 37°47' W 122°18'1 1.0
2018-Feb-19 12:30N 37°48' W 122°17'0 0.0
2018-Feb-19 12:00N 37°48' W 122°17'0 0.0
2018-Feb-19 11:30N 37°48' W 122°17'0 0.0
2018-Feb-19 11:00N 37°48' W 122°17'0 0.0
2018-Feb-19 10:30N 37°48' W 122°17'0 0.0
2018-Feb-19 10:00N 37°48' W 122°17'0 0.0
2018-Feb-19 09:30N 37°48' W 122°17'0 0.9
2018-Feb-19 09:01N 37°48' W 122°18'3 6.6
2018-Feb-19 08:30N 37°48' W 122°22'3 5.0
2018-Feb-19 08:00N 37°46' W 122°20'0 0.5
2018-Feb-19 07:31N 37°45' W 122°20'0 0.0
2018-Feb-19 07:01N 37°45' W 122°20'0 0.1
2018-Feb-19 06:30N 37°45' W 122°20'0 0.1
2018-Feb-19 06:00N 37°45' W 122°20'0 0.1
2018-Feb-19 05:30N 37°45' W 122°20'0 0.1
2018-Feb-19 05:01N 37°45' W 122°20'0 0.0
2018-Feb-19 04:30N 37°46' W 122°20'1 1.7
2018-Feb-19 04:00N 37°45' W 122°21'0 0.1
2018-Feb-19 03:30N 37°45' W 122°21'0 0.1
2018-Feb-19 03:00N 37°45' W 122°21'0 0.0
2018-Feb-19 02:30N 37°45' W 122°21'0 0.1
2018-Feb-19 02:00N 37°45' W 122°21'0 0.0
2018-Feb-19 01:30N 37°45' W 122°21'0 0.0
2018-Feb-19 01:00N 37°45' W 122°21'0 0.1
2018-Feb-19 00:30N 37°45' W 122°21'1 2.6
2018-Feb-19 00:00N 37°46' W 122°22'4 7.1
2018-Feb-18 23:31N 37°48' W 122°18'0 0.7
2018-Feb-18 23:00N 37°48' W 122°17'0 0.0
2018-Feb-18 22:29N 37°48' W 122°17'0 0.0
2018-Feb-18 22:00N 37°48' W 122°17'0 0.0
2018-Feb-18 21:30N 37°48' W 122°17'0 0.0
2018-Feb-18 21:00N 37°48' W 122°17'0 0.0
2018-Feb-18 20:30N 37°48' W 122°17'0 0.0
2018-Feb-18 20:00N 37°48' W 122°17'0 0.0
2018-Feb-18 19:30N 37°48' W 122°17'0 0.0
2018-Feb-18 19:00N 37°48' W 122°17'0 0.0
2018-Feb-18 18:30N 37°48' W 122°17'0 0.0
2018-Feb-18 18:00N 37°48' W 122°17'0 0.0
2018-Feb-18 17:30N 37°48' W 122°17'0 0.0
2018-Feb-18 17:00N 37°48' W 122°17'0 0.0
2018-Feb-18 16:30N 37°48' W 122°17'0 0.0
2018-Feb-18 15:59N 37°48' W 122°17'0 0.0
2018-Feb-18 15:31N 37°48' W 122°17'0 0.8
2018-Feb-18 15:01N 37°48' W 122°18'2 3.2
2018-Feb-18 14:30N 37°48' W 122°20'2 3.7
2018-Feb-18 14:01N 37°48' W 122°17'1 1.9
2018-Feb-18 13:30N 37°48' W 122°18'1 1.1
2018-Feb-18 13:01N 37°48' W 122°19'0 0.6
2018-Feb-18 12:30N 37°48' W 122°19'0 0.0
2018-Feb-18 12:00N 37°48' W 122°19'0 0.0
2018-Feb-18 11:31N 37°48' W 122°19'0 0.1
2018-Feb-18 11:00N 37°48' W 122°19'4 8.4
2018-Feb-18 10:30N 37°50' W 122°23'510.1
2018-Feb-18 10:00N 37°55' W 122°25'5 9.5
2018-Feb-18 09:30N 37°59' W 122°25'5 9.0
2018-Feb-18 09:00N 38°02' W 122°21'5 9.2
2018-Feb-18 08:29N 38°04' W 122°15'5 9.2
2018-Feb-18 07:55N 38°02' W 122°09'1 0.9
2018-Feb-18 07:16N 38°02' W 122°08'1 4.3
2018-Feb-18 07:00N 38°02' W 122°09'1 0.1
2018-Feb-17 19:49N 38°03' W 122°10'310.2
2018-Feb-17 19:30N 38°04' W 122°14'1 2.9
2018-Feb-17 19:00N 38°03' W 122°16'0 0.0
2018-Feb-17 18:30N 38°03' W 122°16'0 0.8
2018-Feb-17 18:00N 38°03' W 122°16'3 6.1
2018-Feb-17 17:30N 38°03' W 122°12'4 4.4
2018-Feb-17 16:38N 38°02' W 122°08'0 0.0
2018-Feb-17 16:30N 38°02' W 122°08'0 0.0
2018-Feb-17 15:51N 38°02' W 122°08'0 0.7
2018-Feb-17 15:30N 38°02' W 122°08'2 3.2
2018-Feb-17 14:59N 38°02' W 122°10'3 6.0
2018-Feb-17 14:30N 38°04' W 122°13'4 8.4
2018-Feb-17 14:00N 38°03' W 122°19'4 8.4
2018-Feb-17 13:30N 38°01' W 122°23'4 9.0
2018-Feb-17 13:01N 37°58' W 122°27'4 8.1
2018-Feb-17 12:30N 37°54' W 122°26'4 9.0
2018-Feb-17 12:00N 37°49' W 122°25'4 7.5
2018-Feb-17 11:30N 37°49' W 122°30'1 2.1
2018-Feb-17 11:00N 37°48' W 122°31'1 1.1
2018-Feb-17 10:30N 37°48' W 122°30'1 2.2
2018-Feb-17 10:00N 37°49' W 122°29'4 7.8
2018-Feb-17 09:30N 37°49' W 122°24'4 8.1
2018-Feb-17 09:01N 37°45' W 122°23'0 0.1
2018-Feb-17 08:30N 37°45' W 122°23'0 0.0
2018-Feb-17 08:00N 37°45' W 122°23'1 1.3
2018-Feb-17 07:31N 37°45' W 122°22'0 0.9
2018-Feb-17 07:01N 37°45' W 122°22'1 1.8
2018-Feb-17 06:31N 37°45' W 122°22'2 4.9
2018-Feb-17 06:00N 37°48' W 122°22'4 7.3
2018-Feb-17 05:30N 37°48' W 122°17'0 0.0
2018-Feb-17 05:00N 37°48' W 122°17'0 0.0
2018-Feb-17 04:30N 37°48' W 122°17'0 0.0
2018-Feb-17 04:00N 37°48' W 122°17'0 0.0
2018-Feb-17 03:30N 37°48' W 122°17'0 0.0
2018-Feb-17 03:00N 37°48' W 122°17'0 0.0
2018-Feb-17 02:30N 37°48' W 122°17'0 0.0
2018-Feb-17 02:00N 37°48' W 122°17'0 0.0
2018-Feb-17 01:30N 37°48' W 122°17'0 0.0
2018-Feb-17 01:00N 37°48' W 122°17'0 0.0
2018-Feb-17 00:30N 37°48' W 122°17'0 0.0
2018-Feb-17 00:00N 37°48' W 122°17'0 0.0
2018-Feb-16 23:30N 37°48' W 122°17'0 0.0
2018-Feb-16 23:00N 37°48' W 122°17'0 0.0
2018-Feb-16 22:30N 37°48' W 122°17'0 0.0
2018-Feb-16 22:00N 37°48' W 122°17'0 0.0
2018-Feb-16 21:30N 37°48' W 122°17'0 0.0
2018-Feb-16 21:00N 37°48' W 122°17'0 0.0
2018-Feb-16 20:30N 37°48' W 122°17'0 0.0
2018-Feb-16 20:00N 37°48' W 122°17'0 0.0
2018-Feb-16 19:30N 37°48' W 122°17'0 0.0
2018-Feb-16 19:00N 37°48' W 122°17'0 0.0
2018-Feb-16 18:31N 37°48' W 122°17'0 0.0
2018-Feb-16 18:00N 37°48' W 122°17'0 0.0
2018-Feb-16 17:30N 37°48' W 122°17'0 0.0
2018-Feb-16 17:01N 37°48' W 122°17'0 0.0
2018-Feb-16 16:30N 37°48' W 122°17'0 0.0
2018-Feb-16 15:59N 37°48' W 122°17'0 0.0
2018-Feb-16 15:30N 37°48' W 122°17'0 0.0
2018-Feb-16 15:00N 37°48' W 122°17'1 1.1
2018-Feb-16 14:31N 37°48' W 122°18'1 2.0
2018-Feb-16 14:01N 37°48' W 122°19'2 4.4
2018-Feb-16 13:30N 37°48' W 122°22'0 0.9
2018-Feb-16 13:00N 37°48' W 122°22'3 5.4
2018-Feb-16 12:31N 37°48' W 122°19'1 2.8
2018-Feb-16 12:00N 37°48' W 122°17'0 0.0
2018-Feb-16 11:30N 37°48' W 122°17'0 0.0
2018-Feb-16 11:00N 37°48' W 122°17'0 0.0
2018-Feb-16 10:30N 37°48' W 122°17'0 0.0
2018-Feb-16 10:00N 37°48' W 122°17'0 0.0
2018-Feb-16 09:30N 37°48' W 122°17'0 0.0
2018-Feb-16 09:00N 37°48' W 122°17'0 0.0
2018-Feb-16 08:30N 37°48' W 122°17'0 0.0
2018-Feb-16 08:00N 37°48' W 122°17'0 0.0
2018-Feb-16 07:30N 37°48' W 122°17'0 0.0
2018-Feb-16 07:00N 37°48' W 122°17'0 0.0
2018-Feb-16 06:30N 37°48' W 122°17'0 0.0
2018-Feb-16 06:00N 37°48' W 122°17'0 0.0
2018-Feb-16 05:30N 37°48' W 122°17'0 0.0
2018-Feb-16 05:00N 37°48' W 122°17'0 0.0
2018-Feb-16 04:30N 37°48' W 122°17'0 0.0
2018-Feb-16 04:00N 37°48' W 122°17'0 0.0
2018-Feb-16 03:30N 37°48' W 122°17'0 0.0
2018-Feb-16 03:01N 37°48' W 122°17'0 0.0
2018-Feb-16 02:30N 37°48' W 122°17'0 0.0
2018-Feb-16 02:01N 37°48' W 122°17'0 0.0
2018-Feb-16 01:30N 37°48' W 122°17'0 0.0
2018-Feb-16 01:00N 37°48' W 122°17'0 0.0
2018-Feb-16 00:30N 37°48' W 122°17'2 4.4
2018-Feb-16 00:00N 37°48' W 122°20'3 6.8
2018-Feb-15 23:31N 37°45' W 122°20'2 4.4
2018-Feb-15 23:00N 37°46' W 122°22'4 7.1
2018-Feb-15 22:30N 37°49' W 122°25'4 7.8
2018-Feb-15 22:00N 37°49' W 122°30'1 1.6
2018-Feb-15 21:30N 37°48' W 122°30'0 0.5
2018-Feb-15 21:00N 37°48' W 122°30'3 5.3
2018-Feb-15 20:30N 37°49' W 122°27'4 7.7
2018-Feb-15 20:00N 37°48' W 122°22'4 7.6
2018-Feb-15 19:30N 37°48' W 122°17'0 0.0
2018-Feb-15 19:00N 37°48' W 122°17'0 0.0
2018-Feb-15 18:30N 37°48' W 122°17'0 0.0
2018-Feb-15 18:00N 37°48' W 122°17'0 0.0
2018-Feb-15 17:30N 37°48' W 122°17'0 0.0
2018-Feb-15 17:00N 37°48' W 122°17'0 0.0
2018-Feb-15 16:30N 37°48' W 122°17'0 0.0
2018-Feb-15 16:00N 37°48' W 122°17'0 0.0
2018-Feb-15 15:29N 37°48' W 122°17'2 4.3
2018-Feb-15 15:00N 37°48' W 122°20'1 1.6
2018-Feb-15 14:30N 37°49' W 122°20'0 0.3
2018-Feb-15 14:00N 37°49' W 122°20'0 0.1
2018-Feb-15 13:31N 37°49' W 122°20'2 3.8
2018-Feb-15 13:00N 37°48' W 122°22'2 4.5
2018-Feb-15 12:30N 37°48' W 122°19'2 3.7
2018-Feb-15 12:00N 37°48' W 122°17'0 0.0
2018-Feb-15 11:30N 37°48' W 122°17'0 0.0
2018-Feb-15 11:00N 37°48' W 122°17'0 0.0
2018-Feb-15 10:30N 37°48' W 122°17'0 0.0
2018-Feb-15 10:00N 37°48' W 122°17'0 0.0
2018-Feb-15 09:30N 37°48' W 122°17'0 0.0
2018-Feb-15 09:00N 37°48' W 122°17'0 0.0
2018-Feb-15 08:30N 37°48' W 122°17'0 0.0
2018-Feb-15 08:00N 37°48' W 122°17'0 0.0
2018-Feb-15 07:30N 37°48' W 122°17'0 0.0
2018-Feb-15 07:00N 37°48' W 122°17'0 0.0
2018-Feb-15 06:30N 37°48' W 122°17'0 0.0
2018-Feb-15 06:00N 37°48' W 122°17'0 0.0
2018-Feb-15 05:30N 37°48' W 122°17'0 0.0
2018-Feb-15 05:00N 37°48' W 122°17'0 0.0
2018-Feb-15 04:30N 37°48' W 122°17'0 0.0
2018-Feb-15 04:00N 37°48' W 122°17'0 0.0
2018-Feb-15 03:30N 37°48' W 122°17'0 0.0
2018-Feb-15 03:00N 37°48' W 122°17'0 0.0
2018-Feb-15 02:29N 37°48' W 122°17'0 0.0
2018-Feb-15 02:00N 37°48' W 122°17'0 0.0
2018-Feb-15 01:30N 37°48' W 122°17'0 0.0
2018-Feb-15 01:00N 37°48' W 122°17'0 0.0
2018-Feb-15 00:30N 37°48' W 122°17'0 0.0
2018-Feb-15 00:00N 37°48' W 122°17'0 0.0
2018-Feb-14 23:30N 37°48' W 122°17'0 0.0
2018-Feb-14 23:00N 37°48' W 122°17'0 0.0
2018-Feb-14 22:31N 37°48' W 122°17'0 0.0
2018-Feb-14 22:00N 37°48' W 122°17'0 0.0
2018-Feb-14 21:29N 37°48' W 122°17'0 0.0
2018-Feb-14 21:00N 37°48' W 122°17'0 0.0
2018-Feb-14 20:31N 37°48' W 122°17'0 0.0
2018-Feb-14 20:01N 37°48' W 122°17'0 0.0
2018-Feb-14 19:30N 37°48' W 122°17'0 0.0
2018-Feb-14 19:00N 37°48' W 122°17'0 0.0
2018-Feb-14 18:30N 37°48' W 122°17'0 0.0
2018-Feb-14 18:00N 37°48' W 122°17'0 0.0
2018-Feb-14 17:30N 37°48' W 122°17'2 3.5
2018-Feb-14 17:00N 37°48' W 122°19'2 3.4
2018-Feb-14 16:31N 37°48' W 122°17'1 1.9
2018-Feb-14 16:01N 37°48' W 122°18'1 1.4
2018-Feb-14 15:30N 37°48' W 122°19'0 0.1
2018-Feb-14 15:00N 37°48' W 122°19'2 3.3
2018-Feb-14 14:30N 37°48' W 122°17'0 0.0
2018-Feb-14 14:00N 37°48' W 122°17'0 0.0
2018-Feb-14 13:30N 37°48' W 122°17'0 0.0
2018-Feb-14 13:00N 37°48' W 122°17'0 0.0
2018-Feb-14 12:30N 37°48' W 122°17'0 0.0
2018-Feb-14 12:00N 37°48' W 122°17'0 0.0
2018-Feb-14 11:30N 37°48' W 122°17'0 0.0
2018-Feb-14 11:00N 37°48' W 122°17'0 0.0
2018-Feb-14 10:30N 37°48' W 122°17'0 0.0
2018-Feb-14 10:00N 37°48' W 122°17'0 0.0
2018-Feb-14 09:30N 37°48' W 122°17'0 0.0
2018-Feb-14 09:00N 37°48' W 122°17'0 0.0
2018-Feb-14 08:30N 37°48' W 122°17'0 0.0
2018-Feb-14 08:00N 37°48' W 122°17'0 0.0
2018-Feb-14 07:30N 37°48' W 122°17'0 0.0
2018-Feb-14 07:00N 37°48' W 122°17'0 0.0
2018-Feb-14 06:30N 37°48' W 122°17'0 0.0
2018-Feb-14 06:00N 37°48' W 122°17'0 0.0
2018-Feb-14 05:30N 37°48' W 122°17'0 0.0
2018-Feb-14 05:00N 37°48' W 122°17'0 0.0
2018-Feb-14 04:30N 37°48' W 122°17'0 0.0
2018-Feb-14 04:00N 37°48' W 122°17'0 0.0
2018-Feb-14 03:30N 37°48' W 122°17'0 0.0
2018-Feb-14 03:00N 37°48' W 122°17'0 0.0
2018-Feb-14 02:30N 37°48' W 122°17'0 0.0
2018-Feb-14 02:00N 37°48' W 122°17'0 0.0
2018-Feb-14 01:30N 37°48' W 122°17'0 0.0
2018-Feb-14 01:00N 37°48' W 122°17'0 0.0
2018-Feb-14 00:30N 37°48' W 122°17'0 0.0
2018-Feb-14 00:00N 37°48' W 122°17'0 0.0
2018-Feb-13 23:30N 37°48' W 122°17'0 0.0
2018-Feb-13 23:00N 37°48' W 122°17'0 0.0
2018-Feb-13 22:30N 37°48' W 122°17'0 0.0
2018-Feb-13 22:00N 37°48' W 122°17'0 0.0
2018-Feb-13 21:30N 37°48' W 122°17'0 0.0
2018-Feb-13 21:00N 37°48' W 122°17'0 0.0
2018-Feb-13 20:30N 37°48' W 122°17'0 0.0
2018-Feb-13 20:00N 37°48' W 122°17'0 0.0
2018-Feb-13 19:30N 37°48' W 122°17'0 0.0
2018-Feb-13 19:00N 37°48' W 122°17'0 0.0
2018-Feb-13 18:30N 37°48' W 122°17'0 0.0
2018-Feb-13 18:00N 37°48' W 122°17'0 0.0
2018-Feb-13 17:30N 37°48' W 122°17'0 0.0
2018-Feb-13 17:00N 37°48' W 122°17'0 0.0
2018-Feb-13 16:30N 37°48' W 122°17'0 0.0
2018-Feb-13 16:00N 37°48' W 122°17'0 0.0
2018-Feb-13 15:30N 37°48' W 122°17'0 0.0
2018-Feb-13 15:00N 37°48' W 122°17'0 0.0
2018-Feb-13 14:30N 37°48' W 122°17'0 0.0
2018-Feb-13 14:00N 37°48' W 122°17'0 0.0
2018-Feb-13 13:30N 37°48' W 122°17'0 0.0
2018-Feb-13 13:00N 37°48' W 122°17'0 0.0
2018-Feb-13 12:30N 37°48' W 122°17'0 0.0
2018-Feb-13 12:00N 37°48' W 122°17'0 0.0
2018-Feb-13 11:30N 37°48' W 122°17'0 0.0
2018-Feb-13 11:00N 37°48' W 122°17'0 0.0
2018-Feb-13 10:30N 37°48' W 122°17'2 3.3
2018-Feb-13 10:01N 37°48' W 122°19'5 9.3
2018-Feb-13 09:30N 37°49' W 122°25'4 8.5
2018-Feb-13 09:00N 37°49' W 122°30'1 1.5
2018-Feb-13 08:30N 37°49' W 122°31'2 3.7
2018-Feb-13 08:00N 37°49' W 122°29'4 7.8
2018-Feb-13 07:31N 37°51' W 122°25'4 7.7
2018-Feb-13 07:00N 37°55' W 122°27'4 7.4
2018-Feb-13 06:30N 37°58' W 122°26'3 6.6
2018-Feb-13 06:00N 38°01' W 122°24'4 7.2
2018-Feb-13 05:28N 38°03' W 122°20'3 6.4
2018-Feb-13 05:00N 38°04' W 122°16'0 0.4
2018-Feb-13 04:28N 38°03' W 122°16'0 0.0
2018-Feb-13 04:00N 38°03' W 122°16'4 7.5
2018-Feb-13 03:27N 38°02' W 122°21'4 9.0
2018-Feb-13 03:00N 37°60' W 122°25'4 8.9
2018-Feb-13 02:30N 37°55' W 122°25'5 9.1
2018-Feb-13 02:00N 37°51' W 122°24'4 8.1
2018-Feb-13 01:30N 37°48' W 122°21'3 5.3
2018-Feb-13 01:01N 37°48' W 122°17'1 3.0
2018-Feb-13 00:30N 37°48' W 122°19'0 0.3
2018-Feb-13 00:01N 37°48' W 122°19'1 2.9
2018-Feb-12 23:30N 37°48' W 122°18'0 0.7
2018-Feb-12 23:00N 37°48' W 122°17'0 0.0
2018-Feb-12 22:30N 37°48' W 122°17'0 0.0
2018-Feb-12 22:00N 37°48' W 122°17'0 0.0
2018-Feb-12 21:30N 37°48' W 122°17'0 0.0
2018-Feb-12 21:00N 37°48' W 122°17'0 0.0
2018-Feb-12 20:30N 37°48' W 122°17'0 0.0
2018-Feb-12 20:00N 37°48' W 122°17'0 0.0
2018-Feb-12 19:30N 37°48' W 122°17'0 0.0
2018-Feb-12 19:00N 37°48' W 122°17'0 0.0
2018-Feb-12 18:30N 37°48' W 122°17'0 0.0
2018-Feb-12 18:00N 37°48' W 122°17'0 0.0
2018-Feb-12 17:30N 37°48' W 122°17'0 0.0
2018-Feb-12 17:00N 37°48' W 122°17'0 0.0
2018-Feb-12 16:31N 37°48' W 122°17'0 0.0
2018-Feb-12 16:00N 37°48' W 122°17'0 0.0
2018-Feb-12 15:30N 37°48' W 122°17'1 2.1
2018-Feb-12 15:00N 37°48' W 122°18'1 1.2
2018-Feb-12 14:30N 37°48' W 122°19'2 3.9
2018-Feb-12 14:00N 37°48' W 122°22'0 0.4
2018-Feb-12 13:30N 37°48' W 122°22'1 2.7
2018-Feb-12 13:00N 37°47' W 122°22'2 4.0
2018-Feb-12 12:30N 37°48' W 122°20'2 4.8
2018-Feb-12 12:00N 37°48' W 122°17'0 0.0
2018-Feb-12 11:30N 37°48' W 122°17'0 0.0
2018-Feb-12 11:00N 37°48' W 122°17'0 0.0
2018-Feb-12 10:30N 37°48' W 122°17'0 0.0
2018-Feb-12 10:00N 37°48' W 122°17'0 0.0
2018-Feb-12 09:30N 37°48' W 122°17'0 0.0
2018-Feb-12 09:00N 37°48' W 122°17'0 0.0
2018-Feb-12 08:30N 37°48' W 122°17'0 0.0
2018-Feb-12 08:01N 37°48' W 122°17'0 0.0
2018-Feb-12 07:30N 37°48' W 122°17'0 0.0
2018-Feb-12 07:00N 37°48' W 122°17'0 0.0
2018-Feb-12 06:30N 37°48' W 122°17'0 0.0
2018-Feb-12 06:00N 37°48' W 122°17'0 0.0
2018-Feb-12 05:30N 37°48' W 122°17'0 0.0
2018-Feb-12 05:00N 37°48' W 122°17'0 0.0
2018-Feb-12 04:30N 37°48' W 122°17'0 0.0
2018-Feb-12 04:00N 37°48' W 122°17'3 5.5
2018-Feb-12 03:30N 37°48' W 122°21'510.1
2018-Feb-12 03:00N 37°52' W 122°24'3 6.3
2018-Feb-12 02:30N 37°55' W 122°25'0 0.0
2018-Feb-12 01:58N 37°55' W 122°25'0 0.0
2018-Feb-12 01:28N 37°55' W 122°25'0 0.0
2018-Feb-12 00:52N 37°55' W 122°25'0 0.0
2018-Feb-12 00:22N 37°55' W 122°25'0 0.0
2018-Feb-11 23:58N 37°55' W 122°25'0 0.0
2018-Feb-11 23:28N 37°55' W 122°25'0 0.0
2018-Feb-11 22:55N 37°55' W 122°25'0 0.0
2018-Feb-11 22:31N 37°55' W 122°25'3 7.0
2018-Feb-11 22:01N 37°59' W 122°26'611.4
2018-Feb-11 21:30N 38°03' W 122°20'511.0
2018-Feb-11 21:01N 38°04' W 122°14'1 0.4
2018-Feb-11 18:18N 38°03' W 122°12'410.2
2018-Feb-11 17:55N 38°03' W 122°17'4 9.6
2018-Feb-11 17:27N 38°02' W 122°23'510.3
2018-Feb-11 17:00N 37°58' W 122°26'5 9.4
2018-Feb-11 16:30N 37°54' W 122°22'1 1.1
2018-Feb-11 15:59N 37°55' W 122°22'0 0.2
2018-Feb-11 15:30N 37°55' W 122°22'0 0.0
2018-Feb-11 15:00N 37°55' W 122°22'0 0.1
2018-Feb-11 14:31N 37°55' W 122°22'0 0.0
2018-Feb-11 14:00N 37°55' W 122°22'0 0.0
2018-Feb-11 13:31N 37°55' W 122°22'2 4.2
2018-Feb-11 13:00N 37°55' W 122°24'3 5.3
2018-Feb-11 12:31N 37°52' W 122°24'4 8.1
2018-Feb-11 12:00N 37°48' W 122°22'2 5.0
2018-Feb-11 11:31N 37°48' W 122°19'0 0.3
2018-Feb-11 11:00N 37°48' W 122°19'0 0.6
2018-Feb-11 10:30N 37°48' W 122°19'1 2.5
2018-Feb-11 10:01N 37°48' W 122°17'0 0.0
2018-Feb-11 09:30N 37°48' W 122°17'0 0.0
2018-Feb-11 09:00N 37°48' W 122°17'0 0.0
2018-Feb-11 08:30N 37°48' W 122°17'0 0.0
2018-Feb-11 08:01N 37°48' W 122°17'0 0.0
2018-Feb-11 07:30N 37°48' W 122°17'0 0.0
2018-Feb-11 07:00N 37°48' W 122°17'0 0.0
2018-Feb-11 06:31N 37°48' W 122°17'0 0.0
2018-Feb-11 06:00N 37°48' W 122°17'0 0.0
2018-Feb-11 05:30N 37°48' W 122°17'0 0.0
2018-Feb-11 05:01N 37°48' W 122°17'0 0.0
2018-Feb-11 04:30N 37°48' W 122°17'0 0.0
2018-Feb-11 04:00N 37°48' W 122°17'0 0.0
2018-Feb-11 03:30N 37°48' W 122°17'0 0.0
2018-Feb-11 03:01N 37°48' W 122°17'2 3.8
2018-Feb-11 02:31N 37°48' W 122°20'1 1.3
2018-Feb-11 02:01N 37°48' W 122°19'0 0.3
2018-Feb-11 01:31N 37°48' W 122°19'2 3.6
2018-Feb-11 01:00N 37°48' W 122°21'1 2.7
2018-Feb-11 00:30N 37°48' W 122°23'4 8.6
2018-Feb-11 00:01N 37°48' W 122°17'0 0.0
2018-Feb-10 23:30N 37°48' W 122°17'0 0.0
2018-Feb-10 23:00N 37°48' W 122°17'0 0.0
2018-Feb-10 22:30N 37°48' W 122°17'0 0.0
2018-Feb-10 22:01N 37°48' W 122°17'0 0.0
2018-Feb-10 21:30N 37°48' W 122°17'0 0.0
2018-Feb-10 21:01N 37°48' W 122°17'0 0.0
2018-Feb-10 20:31N 37°48' W 122°17'0 0.0
2018-Feb-10 20:00N 37°48' W 122°17'0 0.0
2018-Feb-10 19:31N 37°48' W 122°17'0 0.0
2018-Feb-10 19:00N 37°48' W 122°17'0 0.0
2018-Feb-10 18:30N 37°48' W 122°17'0 0.0
2018-Feb-10 18:00N 37°48' W 122°17'0 0.0
2018-Feb-10 17:31N 37°48' W 122°17'0 0.0
2018-Feb-10 17:01N 37°48' W 122°17'0 0.0
2018-Feb-10 16:30N 37°48' W 122°17'0 0.0
2018-Feb-10 16:01N 37°48' W 122°17'0 0.0
2018-Feb-10 15:31N 37°48' W 122°17'0 0.0
2018-Feb-10 15:01N 37°48' W 122°17'1 1.9
2018-Feb-10 14:30N 37°48' W 122°18'0 0.7
2018-Feb-10 14:00N 37°48' W 122°19'1 1.9
2018-Feb-10 13:31N 37°48' W 122°18'1 1.2
2018-Feb-10 13:00N 37°48' W 122°18'3 6.0
2018-Feb-10 12:31N 37°48' W 122°22'2 4.8
2018-Feb-10 12:00N 37°48' W 122°19'1 2.9
2018-Feb-10 11:31N 37°48' W 122°17'1 2.4
2018-Feb-10 11:00N 37°48' W 122°19'0 0.6
2018-Feb-10 10:30N 37°48' W 122°19'1 2.2
2018-Feb-10 10:00N 37°48' W 122°17'0 0.0
2018-Feb-10 09:31N 37°48' W 122°17'0 0.0
2018-Feb-10 09:01N 37°48' W 122°17'0 0.0
2018-Feb-10 08:31N 37°48' W 122°17'0 0.0
2018-Feb-10 08:00N 37°48' W 122°17'0 0.0
2018-Feb-10 07:31N 37°48' W 122°17'0 0.0
2018-Feb-10 07:01N 37°48' W 122°17'0 0.0
2018-Feb-10 06:31N 37°48' W 122°17'0 0.0
2018-Feb-10 06:00N 37°48' W 122°17'0 0.0
2018-Feb-10 05:30N 37°48' W 122°17'0 0.0
2018-Feb-10 05:00N 37°48' W 122°17'0 0.0
2018-Feb-10 04:31N 37°48' W 122°17'0 0.0
2018-Feb-10 04:01N 37°48' W 122°17'1 3.0
2018-Feb-10 03:31N 37°48' W 122°19'0 0.4
2018-Feb-10 03:00N 37°48' W 122°19'0 0.4
2018-Feb-10 02:31N 37°48' W 122°19'2 3.0
2018-Feb-10 02:00N 37°48' W 122°17'0 0.0
2018-Feb-10 01:30N 37°48' W 122°17'0 0.0
2018-Feb-10 01:01N 37°48' W 122°17'0 0.0
2018-Feb-10 00:31N 37°48' W 122°17'0 0.0
2018-Feb-10 00:00N 37°48' W 122°17'0 0.0
2018-Feb-09 23:30N 37°48' W 122°17'0 0.0
2018-Feb-09 23:00N 37°48' W 122°17'0 0.0
2018-Feb-09 22:46N 37°48' W 122°17'0 0.0
2018-Feb-09 22:30N 37°48' W 122°17'0 0.0
2018-Feb-09 22:00N 37°48' W 122°17'0 0.0
2018-Feb-09 21:31N 37°48' W 122°17'0 0.0
2018-Feb-09 19:00N 37°48' W 122°17'0 0.0
2018-Feb-09 18:01N 37°48' W 122°17'  

Dump ship's entire track history